sensor_id;sensor_type;location;lat;lon;timestamp;pressure;altitude;pressure_sealevel;temperature;humidity
55289;BME280;41154;45.394;5.734;2023-04-06T00:02:09;97238.06;;;0.65;100.00
55289;BME280;41154;45.394;5.734;2023-04-06T00:04:34;97242.53;;;0.64;100.00
55289;BME280;41154;45.394;5.734;2023-04-06T00:07:00;97237.63;;;0.61;100.00
55289;BME280;41154;45.394;5.734;2023-04-06T00:09:26;97239.53;;;0.82;100.00
55289;BME280;41154;45.394;5.734;2023-04-06T00:11:52;97228.63;;;0.70;100.00
55289;BME280;41154;45.394;5.734;2023-04-06T00:14:17;97238.16;;;0.71;100.00
55289;BME280;41154;45.394;5.734;2023-04-06T00:16:43;97225.16;;;0.55;100.00
55289;BME280;41154;45.394;5.734;2023-04-06T00:19:09;97229.53;;;0.63;100.00
55289;BME280;41154;45.394;5.734;2023-04-06T00:21:35;97224.59;;;0.60;100.00
55289;BME280;41154;45.394;5.734;2023-04-06T00:24:01;97217.41;;;0.68;100.00
55289;BME280;41154;45.394;5.734;2023-04-06T00:26:29;97228.69;;;0.62;100.00
55289;BME280;41154;45.394;5.734;2023-04-06T00:28:55;97216.59;;;0.68;100.00
55289;BME280;41154;45.394;5.734;2023-04-06T00:31:21;97227.59;;;0.57;100.00
55289;BME280;41154;45.394;5.734;2023-04-06T00:33:48;97225.78;;;0.57;100.00
55289;BME280;41154;45.394;5.734;2023-04-06T00:36:14;97226.31;;;0.38;100.00
55289;BME280;41154;45.394;5.734;2023-04-06T00:38:40;97224.03;;;0.34;100.00
55289;BME280;41154;45.394;5.734;2023-04-06T00:41:06;97218.09;;;0.32;100.00
55289;BME280;41154;45.394;5.734;2023-04-06T00:43:32;97215.91;;;0.21;100.00
55289;BME280;41154;45.394;5.734;2023-04-06T00:45:58;97220.19;;;0.37;100.00
55289;BME280;41154;45.394;5.734;2023-04-06T00:48:24;97210.34;;;0.31;100.00
55289;BME280;41154;45.394;5.734;2023-04-06T00:50:49;97212.16;;;0.15;100.00
55289;BME280;41154;45.394;5.734;2023-04-06T00:53:16;97213.19;;;0.29;100.00
55289;BME280;41154;45.394;5.734;2023-04-06T00:55:43;97210.91;;;0.26;100.00
55289;BME280;41154;45.394;5.734;2023-04-06T00:58:10;97211.56;;;0.28;100.00
55289;BME280;41154;45.394;5.734;2023-04-06T01:00:45;97199.75;;;0.01;100.00
55289;BME280;41154;45.394;5.734;2023-04-06T01:03:15;97211.41;;;0.07;100.00
55289;BME280;41154;45.394;5.734;2023-04-06T01:05:44;97198.00;;;-0.07;100.00
55289;BME280;41154;45.394;5.734;2023-04-06T01:08:18;97207.31;;;0.04;100.00
55289;BME280;41154;45.394;5.734;2023-04-06T01:10:44;97209.50;;;0.01;100.00
55289;BME280;41154;45.394;5.734;2023-04-06T01:13:25;97210.19;;;-0.06;100.00
55289;BME280;41154;45.394;5.734;2023-04-06T01:15:53;97209.03;;;-0.03;100.00
55289;BME280;41154;45.394;5.734;2023-04-06T01:18:28;97205.13;;;0.08;100.00
55289;BME280;41154;45.394;5.734;2023-04-06T01:21:03;97201.84;;;0.06;100.00
55289;BME280;41154;45.394;5.734;2023-04-06T01:23:30;97212.03;;;0.09;100.00
55289;BME280;41154;45.394;5.734;2023-04-06T01:25:55;97207.75;;;0.08;100.00
55289;BME280;41154;45.394;5.734;2023-04-06T01:28:22;97206.66;;;0.02;100.00
55289;BME280;41154;45.394;5.734;2023-04-06T01:31:08;97199.41;;;0.04;100.00
55289;BME280;41154;45.394;5.734;2023-04-06T01:33:42;97206.03;;;0.00;100.00
55289;BME280;41154;45.394;5.734;2023-04-06T01:36:12;97201.53;;;-0.14;100.00
55289;BME280;41154;45.394;5.734;2023-04-06T01:38:38;97210.44;;;-0.15;100.00
55289;BME280;41154;45.394;5.734;2023-04-06T01:41:04;97203.78;;;-0.26;100.00
55289;BME280;41154;45.394;5.734;2023-04-06T01:43:41;97200.97;;;-0.25;100.00
55289;BME280;41154;45.394;5.734;2023-04-06T01:46:09;97200.13;;;-0.25;100.00
55289;BME280;41154;45.394;5.734;2023-04-06T01:48:39;97204.81;;;-0.35;100.00
55289;BME280;41154;45.394;5.734;2023-04-06T01:51:14;97202.56;;;-0.24;100.00
55289;BME280;41154;45.394;5.734;2023-04-06T01:53:49;97204.75;;;-0.27;100.00
55289;BME280;41154;45.394;5.734;2023-04-06T01:56:16;97200.47;;;-0.28;100.00
55289;BME280;41154;45.394;5.734;2023-04-06T01:58:51;97203.59;;;-0.25;100.00
55289;BME280;41154;45.394;5.734;2023-04-06T02:01:17;97213.59;;;-0.43;100.00
55289;BME280;41154;45.394;5.734;2023-04-06T02:03:51;97206.09;;;-0.55;100.00
55289;BME280;41154;45.394;5.734;2023-04-06T02:06:17;97203.41;;;-0.46;100.00
55289;BME280;41154;45.394;5.734;2023-04-06T02:08:43;97208.50;;;-0.45;100.00
55289;BME280;41154;45.394;5.734;2023-04-06T02:11:09;97201.34;;;-0.36;100.00
55289;BME280;41154;45.394;5.734;2023-04-06T02:13:46;97201.66;;;-0.31;100.00
55289;BME280;41154;45.394;5.734;2023-04-06T02:16:13;97196.78;;;-0.42;100.00
55289;BME280;41154;45.394;5.734;2023-04-06T02:18:40;97188.66;;;-0.56;100.00
55289;BME280;41154;45.394;5.734;2023-04-06T02:21:06;97187.88;;;-0.64;100.00
55289;BME280;41154;45.394;5.734;2023-04-06T02:23:32;97179.38;;;-0.75;100.00
55289;BME280;41154;45.394;5.734;2023-04-06T02:25:58;97186.31;;;-0.82;100.00
55289;BME280;41154;45.394;5.734;2023-04-06T02:28:23;97183.88;;;-0.83;100.00
55289;BME280;41154;45.394;5.734;2023-04-06T02:30:49;97185.06;;;-0.94;100.00
55289;BME280;41154;45.394;5.734;2023-04-06T02:33:16;97179.81;;;-0.94;100.00
55289;BME280;41154;45.394;5.734;2023-04-06T02:35:45;97182.44;;;-0.94;100.00
55289;BME280;41154;45.394;5.734;2023-04-06T02:38:12;97182.88;;;-0.82;100.00
55289;BME280;41154;45.394;5.734;2023-04-06T02:40:38;97183.56;;;-0.88;100.00
55289;BME280;41154;45.394;5.734;2023-04-06T02:43:25;97183.75;;;-0.98;100.00
55289;BME280;41154;45.394;5.734;2023-04-06T02:45:58;97179.75;;;-0.86;100.00
55289;BME280;41154;45.394;5.734;2023-04-06T02:48:24;97183.34;;;-0.79;100.00
55289;BME280;41154;45.394;5.734;2023-04-06T02:50:51;97185.72;;;-0.92;100.00
55289;BME280;41154;45.394;5.734;2023-04-06T02:53:17;97179.75;;;-0.86;100.00
55289;BME280;41154;45.394;5.734;2023-04-06T02:55:43;97174.84;;;-0.89;100.00
55289;BME280;41154;45.394;5.734;2023-04-06T02:58:09;97180.06;;;-0.81;100.00
55289;BME280;41154;45.394;5.734;2023-04-06T03:00:43;97179.25;;;-0.81;100.00
55289;BME280;41154;45.394;5.734;2023-04-06T03:03:08;97175.75;;;-0.74;100.00
55289;BME280;41154;45.394;5.734;2023-04-06T03:05:35;97181.38;;;-0.53;100.00
55289;BME280;41154;45.394;5.734;2023-04-06T03:08:01;97185.06;;;-0.63;100.00
55289;BME280;41154;45.394;5.734;2023-04-06T03:10:41;97179.50;;;-0.68;100.00
55289;BME280;41154;45.394;5.734;2023-04-06T03:13:08;97182.72;;;-0.81;100.00
55289;BME280;41154;45.394;5.734;2023-04-06T03:15:55;97183.41;;;-0.87;100.00
55289;BME280;41154;45.394;5.734;2023-04-06T03:18:23;97185.53;;;-0.82;100.00
55289;BME280;41154;45.394;5.734;2023-04-06T03:20:51;97184.78;;;-0.99;100.00
55289;BME280;41154;45.394;5.734;2023-04-06T03:23:20;97177.19;;;-0.94;100.00
55289;BME280;41154;45.394;5.734;2023-04-06T03:25:53;97180.78;;;-0.87;100.00
55289;BME280;41154;45.394;5.734;2023-04-06T03:28:20;97186.03;;;-0.87;100.00
55289;BME280;41154;45.394;5.734;2023-04-06T03:30:52;97176.38;;;-0.95;100.00
55289;BME280;41154;45.394;5.734;2023-04-06T03:33:33;97182.44;;;-0.94;100.00
55289;BME280;41154;45.394;5.734;2023-04-06T03:35:58;97180.66;;;-1.02;100.00
55289;BME280;41154;45.394;5.734;2023-04-06T03:38:25;97176.03;;;-1.00;100.00
55289;BME280;41154;45.394;5.734;2023-04-06T03:40:52;97183.91;;;-0.92;100.00
55289;BME280;41154;45.394;5.734;2023-04-06T03:43:22;97184.38;;;-0.88;100.00
55289;BME280;41154;45.394;5.734;2023-04-06T03:45:48;97186.38;;;-0.90;100.00
55289;BME280;41154;45.394;5.734;2023-04-06T03:48:15;97182.72;;;-0.89;100.00
55289;BME280;41154;45.394;5.734;2023-04-06T03:50:42;97186.44;;;-1.06;100.00
55289;BME280;41154;45.394;5.734;2023-04-06T03:53:07;97192.59;;;-1.22;100.00
55289;BME280;41154;45.394;5.734;2023-04-06T03:55:34;97192.66;;;-1.31;100.00
55289;BME280;41154;45.394;5.734;2023-04-06T03:58:00;97194.94;;;-1.36;100.00
55289;BME280;41154;45.394;5.734;2023-04-06T04:00:26;97194.09;;;-1.28;100.00
55289;BME280;41154;45.394;5.734;2023-04-06T04:02:54;97213.78;;;-1.16;100.00
55289;BME280;41154;45.394;5.734;2023-04-06T04:05:20;97213.19;;;-1.26;100.00
55289;BME280;41154;45.394;5.734;2023-04-06T04:07:51;97227.19;;;-1.42;100.00
55289;BME280;41154;45.394;5.734;2023-04-06T04:10:18;97222.94;;;-1.43;100.00
55289;BME280;41154;45.394;5.734;2023-04-06T04:12:45;97233.31;;;-1.41;100.00
55289;BME280;41154;45.394;5.734;2023-04-06T04:15:11;97232.97;;;-1.47;100.00
55289;BME280;41154;45.394;5.734;2023-04-06T04:17:37;97230.03;;;-1.52;100.00
55289;BME280;41154;45.394;5.734;2023-04-06T04:20:04;97237.22;;;-1.37;100.00
55289;BME280;41154;45.394;5.734;2023-04-06T04:22:30;97233.13;;;-1.40;100.00
55289;BME280;41154;45.394;5.734;2023-04-06T04:24:57;97231.63;;;-1.34;100.00
55289;BME280;41154;45.394;5.734;2023-04-06T04:27:24;97239.50;;;-1.34;100.00
55289;BME280;41154;45.394;5.734;2023-04-06T04:29:51;97234.41;;;-1.28;100.00
55289;BME280;41154;45.394;5.734;2023-04-06T04:32:16;97240.97;;;-1.23;100.00
55289;BME280;41154;45.394;5.734;2023-04-06T04:34:44;97240.19;;;-1.40;100.00
55289;BME280;41154;45.394;5.734;2023-04-06T04:37:19;97242.88;;;-1.57;100.00
55289;BME280;41154;45.394;5.734;2023-04-06T04:39:50;97243.66;;;-1.56;100.00
55289;BME280;41154;45.394;5.734;2023-04-06T04:42:16;97235.63;;;-1.55;100.00
55289;BME280;41154;45.394;5.734;2023-04-06T04:44:48;97236.00;;;-1.74;100.00
55289;BME280;41154;45.394;5.734;2023-04-06T04:47:19;97234.47;;;-1.69;100.00
55289;BME280;41154;45.394;5.734;2023-04-06T04:49:47;97229.22;;;-1.52;100.00
55289;BME280;41154;45.394;5.734;2023-04-06T04:52:18;97227.06;;;-1.57;100.00
55289;BME280;41154;45.394;5.734;2023-04-06T04:54:58;97239.25;;;-1.64;100.00
55289;BME280;41154;45.394;5.734;2023-04-06T04:57:27;97235.97;;;-1.66;100.00
55289;BME280;41154;45.394;5.734;2023-04-06T04:59:53;97233.00;;;-1.63;100.00
55289;BME280;41154;45.394;5.734;2023-04-06T05:02:19;97243.50;;;-1.55;100.00
55289;BME280;41154;45.394;5.734;2023-04-06T05:04:53;97240.59;;;-1.68;100.00
55289;BME280;41154;45.394;5.734;2023-04-06T05:07:23;97247.25;;;-1.33;100.00
55289;BME280;41154;45.394;5.734;2023-04-06T05:09:51;97245.19;;;-1.62;100.00
55289;BME280;41154;45.394;5.734;2023-04-06T05:12:19;97244.66;;;-1.57;100.00
55289;BME280;41154;45.394;5.734;2023-04-06T05:14:58;97250.91;;;-1.58;100.00
55289;BME280;41154;45.394;5.734;2023-04-06T05:17:24;97242.66;;;-1.47;100.00
55289;BME280;41154;45.394;5.734;2023-04-06T05:19:52;97242.66;;;-1.39;100.00
55289;BME280;41154;45.394;5.734;2023-04-06T05:22:22;97245.44;;;-1.32;100.00
55289;BME280;41154;45.394;5.734;2023-04-06T05:24:56;97245.78;;;-1.43;100.00
55289;BME280;41154;45.394;5.734;2023-04-06T05:27:22;97235.41;;;-1.45;100.00
55289;BME280;41154;45.394;5.734;2023-04-06T05:29:48;97241.88;;;-1.48;100.00
55289;BME280;41154;45.394;5.734;2023-04-06T05:32:15;97248.38;;;-1.27;100.00
55289;BME280;41154;45.394;5.734;2023-04-06T05:34:44;97255.81;;;-1.39;100.00
55289;BME280;41154;45.394;5.734;2023-04-06T05:37:10;97260.56;;;-1.34;100.00
55289;BME280;41154;45.394;5.734;2023-04-06T05:39:36;97255.34;;;-1.51;100.00
55289;BME280;41154;45.394;5.734;2023-04-06T05:42:04;97252.38;;;-1.56;100.00
55289;BME280;41154;45.394;5.734;2023-04-06T05:44:45;97256.97;;;-1.41;100.00
55289;BME280;41154;45.394;5.734;2023-04-06T05:47:14;97258.28;;;-1.46;100.00
55289;BME280;41154;45.394;5.734;2023-04-06T05:49:42;97252.50;;;-1.33;100.00
55289;BME280;41154;45.394;5.734;2023-04-06T05:52:13;97254.31;;;-1.33;100.00
55289;BME280;41154;45.394;5.734;2023-04-06T05:54:43;97256.53;;;-1.05;100.00
55289;BME280;41154;45.394;5.734;2023-04-06T05:57:08;97254.63;;;-0.80;100.00
55289;BME280;41154;45.394;5.734;2023-04-06T05:59:34;97249.25;;;-0.95;100.00
55289;BME280;41154;45.394;5.734;2023-04-06T06:02:01;97252.63;;;-0.70;100.00
55289;BME280;41154;45.394;5.734;2023-04-06T06:04:30;97255.44;;;-0.71;100.00
55289;BME280;41154;45.394;5.734;2023-04-06T06:06:56;97256.69;;;-0.67;100.00
55289;BME280;41154;45.394;5.734;2023-04-06T06:09:33;97254.97;;;-0.52;100.00
55289;BME280;41154;45.394;5.734;2023-04-06T06:12:09;97270.72;;;-0.35;100.00
55289;BME280;41154;45.394;5.734;2023-04-06T06:14:35;97270.13;;;-0.23;100.00
55289;BME280;41154;45.394;5.734;2023-04-06T06:17:01;97275.22;;;0.25;100.00
55289;BME280;41154;45.394;5.734;2023-04-06T06:19:27;97261.97;;;0.33;100.00
55289;BME280;41154;45.394;5.734;2023-04-06T06:21:57;97265.97;;;0.06;100.00
55289;BME280;41154;45.394;5.734;2023-04-06T06:24:24;97267.25;;;0.10;100.00
55289;BME280;41154;45.394;5.734;2023-04-06T06:26:51;97264.50;;;0.04;100.00
55289;BME280;41154;45.394;5.734;2023-04-06T06:29:19;97259.41;;;0.02;100.00
55289;BME280;41154;45.394;5.734;2023-04-06T06:31:44;97261.16;;;0.10;100.00
55289;BME280;41154;45.394;5.734;2023-04-06T06:34:11;97257.41;;;0.27;100.00
55289;BME280;41154;45.394;5.734;2023-04-06T06:36:38;97266.06;;;0.36;100.00
55289;BME280;41154;45.394;5.734;2023-04-06T06:39:07;97267.47;;;0.47;100.00
55289;BME280;41154;45.394;5.734;2023-04-06T06:41:33;97269.94;;;1.38;100.00
55289;BME280;41154;45.394;5.734;2023-04-06T06:43:59;97275.09;;;4.34;100.00
55289;BME280;41154;45.394;5.734;2023-04-06T06:46:27;97267.19;;;7.54;100.00
55289;BME280;41154;45.394;5.734;2023-04-06T06:48:53;97263.03;;;9.21;89.29
55289;BME280;41154;45.394;5.734;2023-04-06T06:51:18;97257.94;;;9.07;87.61
55289;BME280;41154;45.394;5.734;2023-04-06T06:53:44;97262.31;;;7.51;100.00
55289;BME280;41154;45.394;5.734;2023-04-06T06:56:10;97258.72;;;7.76;100.00
55289;BME280;41154;45.394;5.734;2023-04-06T06:58:36;97255.06;;;8.31;95.87
55289;BME280;41154;45.394;5.734;2023-04-06T07:01:02;97248.84;;;9.32;90.51
55289;BME280;41154;45.394;5.734;2023-04-06T07:03:30;97252.22;;;9.27;88.50
55289;BME280;41154;45.394;5.734;2023-04-06T07:05:56;97257.81;;;9.14;93.09
55289;BME280;41154;45.394;5.734;2023-04-06T07:08:24;97252.91;;;10.04;83.79
55289;BME280;41154;45.394;5.734;2023-04-06T07:10:52;97255.16;;;9.95;85.80
55289;BME280;41154;45.394;5.734;2023-04-06T07:13:19;97258.47;;;9.85;84.22
55289;BME280;41154;45.394;5.734;2023-04-06T07:15:50;97259.31;;;9.33;88.98
55289;BME280;41154;45.394;5.734;2023-04-06T07:18:17;97259.78;;;9.30;85.85
55289;BME280;41154;45.394;5.734;2023-04-06T07:20:44;97255.41;;;9.53;87.67
55289;BME280;41154;45.394;5.734;2023-04-06T07:23:10;97256.09;;;10.81;80.48
55289;BME280;41154;45.394;5.734;2023-04-06T07:25:36;97259.94;;;9.64;85.75
55289;BME280;41154;45.394;5.734;2023-04-06T07:28:03;97259.25;;;10.94;77.91
55289;BME280;41154;45.394;5.734;2023-04-06T07:30:29;97261.59;;;11.69;75.26
55289;BME280;41154;45.394;5.734;2023-04-06T07:32:56;97261.09;;;10.26;81.68
55289;BME280;41154;45.394;5.734;2023-04-06T07:35:24;97258.59;;;10.07;81.78
55289;BME280;41154;45.394;5.734;2023-04-06T07:37:54;97258.28;;;10.33;80.93
55289;BME280;41154;45.394;5.734;2023-04-06T07:40:21;97257.72;;;10.48;82.38
55289;BME280;41154;45.394;5.734;2023-04-06T07:42:48;97247.91;;;12.20;76.60
55289;BME280;41154;45.394;5.734;2023-04-06T07:45:14;97238.59;;;12.00;74.50
55289;BME280;41154;45.394;5.734;2023-04-06T07:47:42;97244.88;;;13.56;68.01
55289;BME280;41154;45.394;5.734;2023-04-06T07:50:09;97242.38;;;14.28;63.73
55289;BME280;41154;45.394;5.734;2023-04-06T07:52:36;97246.09;;;12.90;68.47
55289;BME280;41154;45.394;5.734;2023-04-06T07:55:02;97251.66;;;10.69;76.10
55289;BME280;41154;45.394;5.734;2023-04-06T07:57:28;97248.91;;;11.42;76.89
55289;BME280;41154;45.394;5.734;2023-04-06T07:59:54;97249.16;;;11.63;74.55
55289;BME280;41154;45.394;5.734;2023-04-06T08:02:20;97255.66;;;12.76;74.63
55289;BME280;41154;45.394;5.734;2023-04-06T08:04:46;97255.31;;;13.47;70.79
55289;BME280;41154;45.394;5.734;2023-04-06T08:07:11;97251.66;;;13.21;68.99
55289;BME280;41154;45.394;5.734;2023-04-06T08:09:37;97250.22;;;13.08;68.12
55289;BME280;41154;45.394;5.734;2023-04-06T08:12:03;97249.66;;;14.33;70.05
55289;BME280;41154;45.394;5.734;2023-04-06T08:14:29;97254.84;;;14.81;63.26
55289;BME280;41154;45.394;5.734;2023-04-06T08:16:55;97236.47;;;15.84;56.98
55289;BME280;41154;45.394;5.734;2023-04-06T08:19:21;97245.56;;;16.83;54.25
55289;BME280;41154;45.394;5.734;2023-04-06T08:21:47;97230.84;;;17.48;52.69
55289;BME280;41154;45.394;5.734;2023-04-06T08:24:13;97235.69;;;17.27;51.91
55289;BME280;41154;45.394;5.734;2023-04-06T08:26:39;97231.81;;;16.40;55.25
55289;BME280;41154;45.394;5.734;2023-04-06T08:29:05;97231.94;;;16.59;56.03
55289;BME280;41154;45.394;5.734;2023-04-06T08:31:34;97228.59;;;16.72;51.60
55289;BME280;41154;45.394;5.734;2023-04-06T08:34:03;97227.63;;;17.46;47.89
55289;BME280;41154;45.394;5.734;2023-04-06T08:36:29;97225.50;;;16.15;49.02
55289;BME280;41154;45.394;5.734;2023-04-06T08:38:54;97223.50;;;14.95;50.03
55289;BME280;41154;45.394;5.734;2023-04-06T08:41:20;97225.44;;;15.65;50.93
55289;BME280;41154;45.394;5.734;2023-04-06T08:43:58;97226.34;;;15.45;56.75
55289;BME280;41154;45.394;5.734;2023-04-06T08:46:24;97224.59;;;15.75;54.99
55289;BME280;41154;45.394;5.734;2023-04-06T08:49:02;97231.75;;;15.35;51.41
55289;BME280;41154;45.394;5.734;2023-04-06T08:51:30;97232.13;;;15.88;50.39
55289;BME280;41154;45.394;5.734;2023-04-06T08:53:57;97238.63;;;15.87;47.99
55289;BME280;41154;45.394;5.734;2023-04-06T08:56:25;97225.44;;;19.00;42.16
55289;BME280;41154;45.394;5.734;2023-04-06T08:58:55;97231.50;;;18.78;42.59
55289;BME280;41154;45.394;5.734;2023-04-06T09:01:24;97235.34;;;17.33;44.56
55289;BME280;41154;45.394;5.734;2023-04-06T09:03:51;97234.44;;;16.89;49.81
55289;BME280;41154;45.394;5.734;2023-04-06T09:06:20;97237.31;;;16.98;46.42
55289;BME280;41154;45.394;5.734;2023-04-06T09:08:46;97234.75;;;16.78;47.10
55289;BME280;41154;45.394;5.734;2023-04-06T09:11:13;97237.72;;;17.83;47.29
55289;BME280;41154;45.394;5.734;2023-04-06T09:13:51;97232.44;;;17.73;43.96
55289;BME280;41154;45.394;5.734;2023-04-06T09:16:18;97240.63;;;17.68;44.66
55289;BME280;41154;45.394;5.734;2023-04-06T09:18:44;97232.53;;;15.45;41.95
55289;BME280;41154;45.394;5.734;2023-04-06T09:21:10;97238.63;;;14.81;46.21
55289;BME280;41154;45.394;5.734;2023-04-06T09:23:36;97232.88;;;14.05;45.64
55289;BME280;41154;45.394;5.734;2023-04-06T09:26:10;97225.84;;;15.27;40.97
55289;BME280;41154;45.394;5.734;2023-04-06T09:28:49;97230.19;;;14.05;50.28
55289;BME280;41154;45.394;5.734;2023-04-06T09:31:21;97236.16;;;12.58;49.15
55289;BME280;41154;45.394;5.734;2023-04-06T09:33:47;97242.00;;;13.30;49.17
55289;BME280;41154;45.394;5.734;2023-04-06T09:36:13;97236.03;;;12.43;50.98
55289;BME280;41154;45.394;5.734;2023-04-06T09:38:57;97230.25;;;12.29;51.19
55289;BME280;41154;45.394;5.734;2023-04-06T09:44:12;97232.31;;;13.29;50.59
55289;BME280;41154;45.394;5.734;2023-04-06T09:46:40;97232.25;;;13.19;50.27
55289;BME280;41154;45.394;5.734;2023-04-06T09:49:08;97233.56;;;13.64;48.02
55289;BME280;41154;45.394;5.734;2023-04-06T09:52:03;97232.31;;;13.88;48.00
55289;BME280;41154;45.394;5.734;2023-04-06T09:54:32;97225.75;;;13.63;48.58
55289;BME280;41154;45.394;5.734;2023-04-06T09:57:23;97230.53;;;13.51;49.25
55289;BME280;41154;45.394;5.734;2023-04-06T10:00:01;97222.00;;;13.69;57.34
55289;BME280;41154;45.394;5.734;2023-04-06T10:07:31;97227.22;;;14.01;55.06
55289;BME280;41154;45.394;5.734;2023-04-06T10:09:59;97238.91;;;13.01;51.35
55289;BME280;41154;45.394;5.734;2023-04-06T10:12:26;97226.16;;;12.54;57.65
55289;BME280;41154;45.394;5.734;2023-04-06T10:14:53;97231.47;;;13.77;54.30
55289;BME280;41154;45.394;5.734;2023-04-06T10:17:18;97229.56;;;13.77;49.21
55289;BME280;41154;45.394;5.734;2023-04-06T10:19:52;97226.00;;;13.56;49.50
55289;BME280;41154;45.394;5.734;2023-04-06T10:22:49;97239.88;;;13.33;51.73
55289;BME280;41154;45.394;5.734;2023-04-06T10:25:32;97241.97;;;13.20;50.58
55289;BME280;41154;45.394;5.734;2023-04-06T10:28:09;97233.91;;;13.30;50.84
55289;BME280;41154;45.394;5.734;2023-04-06T10:30:42;97226.94;;;13.98;53.19
55289;BME280;41154;45.394;5.734;2023-04-06T10:33:16;97233.97;;;12.93;51.61
55289;BME280;41154;45.394;5.734;2023-04-06T10:35:42;97235.19;;;13.12;48.48
55289;BME280;41154;45.394;5.734;2023-04-06T10:38:08;97229.22;;;13.05;50.31
55289;BME280;41154;45.394;5.734;2023-04-06T10:40:38;97229.16;;;12.95;48.13
55289;BME280;41154;45.394;5.734;2023-04-06T10:43:18;97239.47;;;12.38;51.37
55289;BME280;41154;45.394;5.734;2023-04-06T10:45:44;97234.44;;;12.47;48.20
55289;BME280;41154;45.394;5.734;2023-04-06T10:48:18;97240.13;;;12.51;51.71
55289;BME280;41154;45.394;5.734;2023-04-06T10:50:48;97241.59;;;12.31;50.75
55289;BME280;41154;45.394;5.734;2023-04-06T10:53:25;97232.00;;;11.91;50.91
55289;BME280;41154;45.394;5.734;2023-04-06T10:55:54;97241.34;;;12.33;50.42
55289;BME280;41154;45.394;5.734;2023-04-06T10:58:24;97233.59;;;12.09;49.20
55289;BME280;41154;45.394;5.734;2023-04-06T11:00:50;97228.47;;;12.40;50.63
55289;BME280;41154;45.394;5.734;2023-04-06T11:03:16;97227.59;;;12.67;49.13
55289;BME280;41154;45.394;5.734;2023-04-06T11:05:47;97234.59;;;12.68;48.12
55289;BME280;41154;45.394;5.734;2023-04-06T11:08:24;97224.28;;;12.22;48.64
55289;BME280;41154;45.394;5.734;2023-04-06T11:10:50;97224.56;;;12.53;49.49
55289;BME280;41154;45.394;5.734;2023-04-06T11:13:16;97228.38;;;12.30;50.44
55289;BME280;41154;45.394;5.734;2023-04-06T11:15:43;97235.72;;;12.12;51.93
55289;BME280;41154;45.394;5.734;2023-04-06T11:18:08;97229.44;;;11.79;50.16
55289;BME280;41154;45.394;5.734;2023-04-06T11:20:35;97227.78;;;12.22;49.46
55289;BME280;41154;45.394;5.734;2023-04-06T11:23:01;97231.91;;;12.03;49.66
55289;BME280;41154;45.394;5.734;2023-04-06T11:25:27;97237.25;;;12.57;48.79
55289;BME280;41154;45.394;5.734;2023-04-06T11:27:55;97231.63;;;12.32;49.50
55289;BME280;41154;45.394;5.734;2023-04-06T11:30:21;97231.13;;;12.35;49.45
55289;BME280;41154;45.394;5.734;2023-04-06T11:32:47;97229.09;;;12.85;50.50
55289;BME280;41154;45.394;5.734;2023-04-06T11:35:22;97240.34;;;12.76;49.10
55289;BME280;41154;45.394;5.734;2023-04-06T11:37:49;97240.69;;;12.53;49.29
55289;BME280;41154;45.394;5.734;2023-04-06T11:40:20;97233.94;;;12.83;48.85
55289;BME280;41154;45.394;5.734;2023-04-06T11:42:52;97235.47;;;12.73;47.14
55289;BME280;41154;45.394;5.734;2023-04-06T11:45:19;97234.72;;;12.83;46.24
55289;BME280;41154;45.394;5.734;2023-04-06T11:47:44;97219.72;;;12.98;49.51
55289;BME280;41154;45.394;5.734;2023-04-06T11:50:14;97222.28;;;12.77;48.68
55289;BME280;41154;45.394;5.734;2023-04-06T11:52:41;97220.75;;;12.86;47.39
55289;BME280;41154;45.394;5.734;2023-04-06T11:55:15;97219.69;;;12.87;46.21
55289;BME280;41154;45.394;5.734;2023-04-06T11:57:42;97217.97;;;13.13;48.46
55289;BME280;41154;45.394;5.734;2023-04-06T12:00:09;97217.31;;;13.39;46.96
55289;BME280;41154;45.394;5.734;2023-04-06T12:02:36;97214.75;;;13.80;45.97
55289;BME280;41154;45.394;5.734;2023-04-06T12:05:03;97203.75;;;13.97;44.36
55289;BME280;41154;45.394;5.734;2023-04-06T12:07:29;97209.59;;;13.68;46.07
55289;BME280;41154;45.394;5.734;2023-04-06T12:09:55;97207.53;;;14.01;45.98
55289;BME280;41154;45.394;5.734;2023-04-06T12:12:21;97208.34;;;14.17;43.89
55289;BME280;41154;45.394;5.734;2023-04-06T12:14:47;97212.00;;;13.59;44.99
55289;BME280;41154;45.394;5.734;2023-04-06T12:17:13;97215.78;;;13.10;48.42
55289;BME280;41154;45.394;5.734;2023-04-06T12:19:39;97210.25;;;12.85;45.60
55289;BME280;41154;45.394;5.734;2023-04-06T12:22:06;97211.75;;;13.13;45.63
55289;BME280;41154;45.394;5.734;2023-04-06T12:24:31;97207.19;;;12.71;46.77
55289;BME280;41154;45.394;5.734;2023-04-06T12:26:57;97205.75;;;13.43;46.33
55289;BME280;41154;45.394;5.734;2023-04-06T12:29:24;97206.47;;;13.34;45.09
55289;BME280;41154;45.394;5.734;2023-04-06T12:31:50;97201.69;;;13.46;43.66
55289;BME280;41154;45.394;5.734;2023-04-06T12:34:16;97216.09;;;13.19;43.62
55289;BME280;41154;45.394;5.734;2023-04-06T12:36:42;97205.97;;;12.89;45.04
55289;BME280;41154;45.394;5.734;2023-04-06T12:39:08;97198.31;;;13.87;43.07
55289;BME280;41154;45.394;5.734;2023-04-06T12:41:33;97205.28;;;13.09;42.26
55289;BME280;41154;45.394;5.734;2023-04-06T12:44:00;97212.41;;;12.88;42.27
55289;BME280;41154;45.394;5.734;2023-04-06T12:46:26;97207.19;;;12.71;43.97
55289;BME280;41154;45.394;5.734;2023-04-06T12:48:52;97199.38;;;13.12;42.59
55289;BME280;41154;45.394;5.734;2023-04-06T12:51:21;97203.47;;;13.25;42.70
55289;BME280;41154;45.394;5.734;2023-04-06T12:53:47;97199.00;;;13.46;41.49
55289;BME280;41154;45.394;5.734;2023-04-06T12:56:15;97204.97;;;13.58;43.76
55289;BME280;41154;45.394;5.734;2023-04-06T12:58:46;97201.66;;;13.36;41.91
55289;BME280;41154;45.394;5.734;2023-04-06T13:01:12;97200.19;;;13.18;43.36
55289;BME280;41154;45.394;5.734;2023-04-06T13:03:41;97198.28;;;13.13;42.55
55289;BME280;41154;45.394;5.734;2023-04-06T13:06:08;97192.28;;;13.43;42.58
55289;BME280;41154;45.394;5.734;2023-04-06T13:08:34;97189.44;;;13.23;44.06
55289;BME280;41154;45.394;5.734;2023-04-06T13:11:01;97191.50;;;13.58;41.12
55289;BME280;41154;45.394;5.734;2023-04-06T13:13:30;97182.88;;;13.61;42.20